Seven Seas — J8B5110 — position and weather

sailwx.info

Track history (hours):
 
Tides and Currents Weather Stations Pressure Air Temp Water Temp Dewpoint Dewpoint Depression Visibility Wind Speed Wind Dir Waves Ship Positions

Seven Seas

Last reported at 2018-Jun-24 10:29 UTC. Time now 2018-Jun-24 11:16 UTC.
Position N 32°54' E 035°01'.

Length 88 m; draft 5.6 m.

Type: Cargo ship. MMSI: 376783000.

Date/timePositionNaut miles runAvg speedWind from/ knotsBaromVisibWave heightAir tempDewpointWater temp
2018-Jun-24 10:29N 32°54' E 035°01'0 0.0
2018-Jun-24 07:16N 32°54' E 035°01'0 0.0
2018-Jun-24 06:58N 32°54' E 035°01'0 0.0
2018-Jun-23 22:13N 32°54' E 035°01'0 0.0
2018-Jun-23 15:58N 32°54' E 035°01'0 0.0
2018-Jun-23 15:10N 32°54' E 035°01'0 0.0
2018-Jun-23 14:58N 32°54' E 035°01'0 0.0
2018-Jun-23 13:48N 32°54' E 035°01'0 0.0
2018-Jun-23 13:23N 32°54' E 035°01'0 0.0
2018-Jun-23 10:10N 32°54' E 035°01'0 0.0
2018-Jun-23 09:52N 32°54' E 035°01'0 0.0
2018-Jun-23 08:40N 32°54' E 035°01'0 0.0
2018-Jun-23 08:28N 32°54' E 035°01'0 0.0
2018-Jun-23 07:52N 32°54' E 035°01'0 0.0
2018-Jun-23 07:28N 32°54' E 035°01'0 0.0
2018-Jun-23 06:58N 32°54' E 035°01'0 0.0
2018-Jun-23 06:28N 32°54' E 035°01'0 0.0
2018-Jun-23 05:58N 32°54' E 035°01'0 0.0
2018-Jun-22 14:04N 32°54' E 035°01'0 0.0
2018-Jun-22 13:55N 32°54' E 035°01'0 0.0
2018-Jun-22 13:28N 32°54' E 035°01'0 0.0
2018-Jun-22 11:04N 32°54' E 035°01'0 0.0
2018-Jun-22 10:39N 32°54' E 035°01'0 0.1
2018-Jun-22 09:55N 32°54' E 035°01'3 6.7
2018-Jun-22 09:30N 32°53' E 034°57'5 9.0
2018-Jun-22 08:58N 32°54' E 034°52'5 9.7
2018-Jun-22 08:30N 32°55' E 034°47'  
2018-Jun-19 21:49N 32°54' E 034°52'3 9.5
2018-Jun-19 21:30N 32°53' E 034°55'6 0.1
2018-Jun-18 07:57N 32°50' E 035°01'1 0.4
2018-Jun-18 04:43N 32°51' E 035°01'0 0.0
2018-Jun-18 04:30N 32°51' E 035°01'0 0.0
2018-Jun-18 01:01N 32°51' E 035°01'0 0.0
2018-Jun-18 00:54N 32°51' E 035°01'0 0.0
2018-Jun-18 00:22N 32°51' E 035°01'0 0.0
2018-Jun-17 23:56N 32°51' E 035°01'0 0.0
2018-Jun-17 22:58N 32°51' E 035°01'0 0.0
2018-Jun-17 22:10N 32°51' E 035°01'0 0.0
2018-Jun-17 21:45N 32°51' E 035°01'0 0.0
2018-Jun-17 21:14N 32°51' E 035°01'0 0.0
2018-Jun-17 20:52N 32°51' E 035°01'0 0.0
2018-Jun-17 20:21N 32°51' E 035°01'0 0.0
2018-Jun-17 19:46N 32°51' E 035°01'0 0.0
2018-Jun-17 19:22N 32°51' E 035°01'0 0.0
2018-Jun-17 18:16N 32°51' E 035°01'0 0.0
2018-Jun-17 18:00N 32°51' E 035°01'0 0.0
2018-Jun-17 16:46N 32°51' E 035°01'0 0.0
2018-Jun-17 16:30N 32°51' E 035°01'0 0.0
2018-Jun-17 15:50N 32°51' E 035°01'0 0.0
2018-Jun-17 11:56N 32°51' E 035°01'0 0.0
2018-Jun-17 06:21N 32°51' E 035°01'0 0.0
2018-Jun-17 05:58N 32°51' E 035°01'0 0.0
2018-Jun-17 05:29N 32°51' E 035°01'0 0.0
2018-Jun-16 21:24N 32°52' E 035°00'0 0.1
2018-Jun-16 21:00N 32°51' E 035°00'0 0.0
2018-Jun-16 09:50N 32°51' E 035°00'0 0.0
2018-Jun-16 09:28N 32°51' E 035°00'0 0.2
2018-Jun-16 08:54N 32°52' E 035°00'0 0.0
2018-Jun-16 07:54N 32°52' E 035°00'0 0.1
2018-Jun-16 07:25N 32°52' E 035°00'0 0.0
2018-Jun-16 06:37N 32°52' E 035°00'0 0.0
2018-Jun-16 06:30N 32°52' E 035°00'0 0.0
2018-Jun-16 05:25N 32°52' E 035°00'0 0.0
2018-Jun-16 04:59N 32°52' E 035°00'0 0.0
2018-Jun-16 04:27N 32°52' E 035°00'0 0.0
2018-Jun-16 04:00N 32°52' E 035°00'0 0.0
2018-Jun-16 03:30N 32°52' E 035°00'0 0.0
2018-Jun-16 01:13N 32°52' E 035°00'0 0.0
2018-Jun-16 00:01N 32°52' E 035°00'0 0.0
2018-Jun-15 18:46N 32°51' E 035°01'0 0.0
2018-Jun-15 18:28N 32°51' E 035°00'0 0.0
2018-Jun-15 17:40N 32°51' E 035°00'0 0.0
2018-Jun-15 17:28N 32°51' E 035°00'0 0.0
2018-Jun-15 16:40N 32°51' E 035°00'0 0.0
2018-Jun-15 16:30N 32°51' E 035°00'0 0.0
2018-Jun-15 14:07N 32°51' E 035°01'0 0.0
2018-Jun-15 12:48N 32°51' E 035°01'0 0.0
2018-Jun-15 12:18N 32°51' E 035°01'0 0.0
2018-Jun-15 01:16N 32°51' E 035°01'0 0.0
2018-Jun-14 23:05N 32°51' E 035°01'0 0.0
2018-Jun-14 22:55N 32°51' E 035°01'0 0.0
2018-Jun-14 22:25N 32°51' E 035°01'0 0.0
2018-Jun-14 21:54N 32°51' E 035°01'0 0.0
2018-Jun-14 21:16N 32°51' E 035°01'0 0.0
2018-Jun-14 20:44N 32°51' E 035°01'0 0.0
2018-Jun-14 20:26N 32°51' E 035°01'0 0.0
2018-Jun-14 19:59N 32°51' E 035°01'0 0.0
2018-Jun-14 19:30N 32°51' E 035°01'0 0.0
2018-Jun-14 18:51N 32°51' E 035°01'0 0.0
2018-Jun-14 18:29N 32°51' E 035°01'0 0.0
2018-Jun-14 16:57N 32°51' E 035°01'0 0.0
2018-Jun-14 16:30N 32°51' E 035°01'0 0.0
2018-Jun-14 16:00N 32°51' E 035°01'0 0.0
2018-Jun-14 15:23N 32°51' E 035°01'0 0.0
2018-Jun-14 14:49N 32°51' E 035°01'0 0.0
2018-Jun-14 14:25N 32°51' E 035°01'0 0.0
2018-Jun-14 13:59N 32°51' E 035°01'0 0.0
2018-Jun-14 13:30N 32°51' E 035°01'  
Track history (hours):
 
Tides and Currents Weather Stations Pressure Air Temp Water Temp Dewpoint Dewpoint Depression Visibility Wind Speed Wind Dir Waves Ship Positions

Seven Seas

Last reported at 2018-Jun-24 10:29 UTC. Time now 2018-Jun-24 11:16 UTC.
Position N 32°54' E 035°01'.

Length 88 m; draft 5.6 m.

Type: Cargo ship. MMSI: 376783000.

Date/timePositionNaut miles runAvg speedWind from/ knotsBaromVisibWave heightAir tempDewpointWater temp
2018-Jun-24 10:29N 32°54' E 035°01'0 0.0
2018-Jun-24 07:16N 32°54' E 035°01'0 0.0
2018-Jun-24 06:58N 32°54' E 035°01'0 0.0
2018-Jun-23 22:13N 32°54' E 035°01'0 0.0
2018-Jun-23 15:58N 32°54' E 035°01'0 0.0
2018-Jun-23 15:10N 32°54' E 035°01'0 0.0
2018-Jun-23 14:58N 32°54' E 035°01'0 0.0
2018-Jun-23 13:48N 32°54' E 035°01'0 0.0
2018-Jun-23 13:23N 32°54' E 035°01'0 0.0
2018-Jun-23 10:10N 32°54' E 035°01'0 0.0
2018-Jun-23 09:52N 32°54' E 035°01'0 0.0
2018-Jun-23 08:40N 32°54' E 035°01'0 0.0
2018-Jun-23 08:28N 32°54' E 035°01'0 0.0
2018-Jun-23 07:52N 32°54' E 035°01'0 0.0
2018-Jun-23 07:28N 32°54' E 035°01'0 0.0
2018-Jun-23 06:58N 32°54' E 035°01'0 0.0
2018-Jun-23 06:28N 32°54' E 035°01'0 0.0
2018-Jun-23 05:58N 32°54' E 035°01'0 0.0
2018-Jun-22 14:04N 32°54' E 035°01'0 0.0
2018-Jun-22 13:55N 32°54' E 035°01'0 0.0
2018-Jun-22 13:28N 32°54' E 035°01'0 0.0
2018-Jun-22 11:04N 32°54' E 035°01'0 0.0
2018-Jun-22 10:39N 32°54' E 035°01'0 0.1
2018-Jun-22 09:55N 32°54' E 035°01'3 6.7
2018-Jun-22 09:30N 32°53' E 034°57'5 9.0
2018-Jun-22 08:58N 32°54' E 034°52'5 9.7
2018-Jun-22 08:30N 32°55' E 034°47'  
2018-Jun-19 21:49N 32°54' E 034°52'3 9.5
2018-Jun-19 21:30N 32°53' E 034°55'6 0.1
2018-Jun-18 07:57N 32°50' E 035°01'1 0.4
2018-Jun-18 04:43N 32°51' E 035°01'0 0.0
2018-Jun-18 04:30N 32°51' E 035°01'0 0.0
2018-Jun-18 01:01N 32°51' E 035°01'0 0.0
2018-Jun-18 00:54N 32°51' E 035°01'0 0.0
2018-Jun-18 00:22N 32°51' E 035°01'0 0.0
2018-Jun-17 23:56N 32°51' E 035°01'0 0.0
2018-Jun-17 22:58N 32°51' E 035°01'0 0.0
2018-Jun-17 22:10N 32°51' E 035°01'0 0.0
2018-Jun-17 21:45N 32°51' E 035°01'0 0.0
2018-Jun-17 21:14N 32°51' E 035°01'0 0.0
2018-Jun-17 20:52N 32°51' E 035°01'0 0.0
2018-Jun-17 20:21N 32°51' E 035°01'0 0.0
2018-Jun-17 19:46N 32°51' E 035°01'0 0.0
2018-Jun-17 19:22N 32°51' E 035°01'0 0.0
2018-Jun-17 18:16N 32°51' E 035°01'0 0.0
2018-Jun-17 18:00N 32°51' E 035°01'0 0.0
2018-Jun-17 16:46N 32°51' E 035°01'0 0.0
2018-Jun-17 16:30N 32°51' E 035°01'0 0.0
2018-Jun-17 15:50N 32°51' E 035°01'0 0.0
2018-Jun-17 11:56N 32°51' E 035°01'0 0.0
2018-Jun-17 06:21N 32°51' E 035°01'0 0.0
2018-Jun-17 05:58N 32°51' E 035°01'0 0.0
2018-Jun-17 05:29N 32°51' E 035°01'0 0.0
2018-Jun-16 21:24N 32°52' E 035°00'0 0.1
2018-Jun-16 21:00N 32°51' E 035°00'0 0.0
2018-Jun-16 09:50N 32°51' E 035°00'0 0.0
2018-Jun-16 09:28N 32°51' E 035°00'0 0.2
2018-Jun-16 08:54N 32°52' E 035°00'0 0.0
2018-Jun-16 07:54N 32°52' E 035°00'0 0.1
2018-Jun-16 07:25N 32°52' E 035°00'0 0.0
2018-Jun-16 06:37N 32°52' E 035°00'0 0.0
2018-Jun-16 06:30N 32°52' E 035°00'0 0.0
2018-Jun-16 05:25N 32°52' E 035°00'0 0.0
2018-Jun-16 04:59N 32°52' E 035°00'0 0.0
2018-Jun-16 04:27N 32°52' E 035°00'0 0.0
2018-Jun-16 04:00N 32°52' E 035°00'0 0.0
2018-Jun-16 03:30N 32°52' E 035°00'0 0.0
2018-Jun-16 01:13N 32°52' E 035°00'0 0.0
2018-Jun-16 00:01N 32°52' E 035°00'0 0.0
2018-Jun-15 18:46N 32°51' E 035°01'0 0.0
2018-Jun-15 18:28N 32°51' E 035°00'0 0.0
2018-Jun-15 17:40N 32°51' E 035°00'0 0.0
2018-Jun-15 17:28N 32°51' E 035°00'0 0.0
2018-Jun-15 16:40N 32°51' E 035°00'0 0.0
2018-Jun-15 16:30N 32°51' E 035°00'0 0.0
2018-Jun-15 14:07N 32°51' E 035°01'0 0.0
2018-Jun-15 12:48N 32°51' E 035°01'0 0.0
2018-Jun-15 12:18N 32°51' E 035°01'0 0.0
2018-Jun-15 01:16N 32°51' E 035°01'0 0.0
2018-Jun-14 23:05N 32°51' E 035°01'0 0.0
2018-Jun-14 22:55N 32°51' E 035°01'0 0.0
2018-Jun-14 22:25N 32°51' E 035°01'0 0.0
2018-Jun-14 21:54N 32°51' E 035°01'0 0.0
2018-Jun-14 21:16N 32°51' E 035°01'0 0.0
2018-Jun-14 20:44N 32°51' E 035°01'0 0.0
2018-Jun-14 20:26N 32°51' E 035°01'0 0.0
2018-Jun-14 19:59N 32°51' E 035°01'0 0.0
2018-Jun-14 19:30N 32°51' E 035°01'0 0.0
2018-Jun-14 18:51N 32°51' E 035°01'0 0.0
2018-Jun-14 18:29N 32°51' E 035°01'0 0.0
2018-Jun-14 16:57N 32°51' E 035°01'0 0.0
2018-Jun-14 16:30N 32°51' E 035°01'0 0.0
2018-Jun-14 16:00N 32°51' E 035°01'0 0.0
2018-Jun-14 15:23N 32°51' E 035°01'0 0.0
2018-Jun-14 14:49N 32°51' E 035°01'0 0.0
2018-Jun-14 14:25N 32°51' E 035°01'0 0.0
2018-Jun-14 13:59N 32°51' E 035°01'0 0.0
2018-Jun-14 13:30N 32°51' E 035°01'  

Dump ship's entire track history